createdAt,value
2023-08-10T00:01:25.117Z,8.77
2023-08-10T00:06:27.369Z,6.03
2023-08-10T00:11:29.442Z,5.88
2023-08-10T00:16:32.285Z,6.00
2023-08-10T00:21:34.444Z,2.92
2023-08-10T00:26:36.533Z,6.30
2023-08-10T00:31:38.686Z,5.30
2023-08-10T00:36:40.790Z,4.30
2023-08-10T00:41:42.884Z,4.85
2023-08-10T00:46:45.104Z,4.90
2023-08-10T00:51:47.548Z,6.05
2023-08-10T00:56:51.963Z,7.72
2023-08-10T01:01:54.208Z,5.78
2023-08-10T01:06:56.296Z,6.55
2023-08-10T01:12:01.687Z,6.50
2023-08-10T01:17:05.400Z,9.27
2023-08-10T01:22:11.002Z,6.65
2023-08-10T01:27:14.976Z,4.68
2023-08-10T01:32:17.947Z,4.65
2023-08-10T01:37:20.099Z,5.97
2023-08-10T01:42:22.813Z,2.85
2023-08-10T01:47:26.352Z,4.68
2023-08-10T01:52:31.913Z,8.48
2023-08-10T01:57:34.634Z,4.45
2023-08-10T02:02:37.109Z,3.95
2023-08-10T02:07:39.734Z,11.00
2023-08-10T02:12:42.095Z,5.60
2023-08-10T02:17:44.439Z,5.80
2023-08-10T02:22:51.159Z,12.68
2023-08-10T02:27:53.460Z,7.45
2023-08-10T02:32:55.623Z,10.90
2023-08-10T02:37:58.609Z,6.82
2023-08-10T02:43:02.097Z,10.85
2023-08-10T02:48:04.480Z,7.90
2023-08-10T02:53:06.696Z,7.47
2023-08-10T02:58:08.919Z,9.52
2023-08-10T03:03:11.095Z,9.63
2023-08-10T03:08:13.256Z,8.65
2023-08-10T03:13:15.560Z,12.13
2023-08-10T03:18:17.802Z,9.10
2023-08-10T03:23:21.305Z,6.82
2023-08-10T03:28:24.406Z,10.32
2023-08-10T03:33:28.585Z,7.30
2023-08-10T03:38:31.013Z,9.80
2023-08-10T03:43:33.239Z,7.63
2023-08-10T03:48:35.465Z,8.45
2023-08-10T03:53:38.941Z,6.75
2023-08-10T03:58:41.066Z,4.75
2023-08-10T04:03:44.717Z,5.18
2023-08-10T04:08:47.807Z,7.60
2023-08-10T04:13:49.902Z,3.65
2023-08-10T04:18:52.378Z,2.85
2023-08-10T04:23:54.491Z,6.95
2023-08-10T04:28:56.705Z,4.75
2023-08-10T04:33:58.785Z,7.30
2023-08-10T04:39:01.279Z,4.28
2023-08-10T04:44:03.632Z,4.20
2023-08-10T04:49:05.868Z,5.55
2023-08-10T04:54:10.264Z,3.78
2023-08-10T04:59:12.387Z,7.13
2023-08-10T05:04:16.350Z,6.50
2023-08-10T05:09:18.440Z,4.35
2023-08-10T05:14:20.566Z,5.82
2023-08-10T05:19:22.704Z,3.55
2023-08-10T05:24:24.810Z,7.32
2023-08-10T05:29:27.086Z,5.50
2023-08-10T05:34:29.271Z,3.08
2023-08-10T05:39:31.437Z,5.75
2023-08-10T05:44:33.788Z,7.57
2023-08-10T05:49:35.944Z,4.63
2023-08-10T05:54:38.048Z,5.75
2023-08-10T05:59:40.169Z,5.47
2023-08-10T06:04:42.897Z,9.43
2023-08-10T06:09:45.371Z,8.73
2023-08-10T06:14:47.458Z,10.55
2023-08-10T06:19:53.579Z,3.60
2023-08-10T06:24:55.988Z,4.63
2023-08-10T06:29:58.111Z,6.93
2023-08-10T06:35:00.243Z,8.02
2023-08-10T06:40:02.497Z,4.57
2023-08-10T06:45:06.453Z,5.80
2023-08-10T06:50:09.535Z,4.90
2023-08-10T06:55:13.171Z,8.43
2023-08-10T07:05:27.846Z,3.60
2023-08-10T07:10:30.082Z,2.65
2023-08-10T07:15:33.181Z,4.20
2023-08-10T07:20:37.812Z,2.70
2023-08-10T07:25:39.996Z,5.30
2023-08-10T07:30:42.276Z,4.82
2023-08-10T07:35:46.223Z,2.78
2023-08-10T07:40:49.218Z,6.32
2023-08-10T07:45:51.376Z,4.85
2023-08-10T07:50:55.763Z,7.32
2023-08-10T07:55:57.877Z,3.38
2023-08-10T08:01:00.000Z,4.43
2023-08-10T08:06:02.348Z,4.32
2023-08-10T08:11:04.695Z,6.88
2023-08-10T08:16:06.905Z,5.47
2023-08-10T08:21:09.764Z,4.85
2023-08-10T08:26:12.466Z,3.53
2023-08-10T08:31:15.096Z,5.28
2023-08-10T08:36:17.273Z,6.47
2023-08-10T08:41:22.478Z,3.25
2023-08-10T08:46:26.747Z,4.97
2023-08-10T08:51:29.019Z,5.05
2023-08-10T08:56:32.926Z,9.60
2023-08-10T09:01:35.623Z,5.22
2023-08-10T09:06:39.154Z,3.60
2023-08-10T09:11:41.257Z,5.32
2023-08-10T09:16:47.096Z,3.60
2023-08-10T09:21:50.154Z,4.57
2023-08-10T09:26:52.974Z,3.25
2023-08-10T09:31:58.038Z,5.88
2023-08-10T09:37:00.210Z,4.85
2023-08-10T09:42:02.326Z,4.85
2023-08-10T09:47:05.925Z,5.10
2023-08-10T09:52:08.490Z,5.45
2023-08-10T09:57:10.834Z,3.78
2023-08-10T10:02:13.313Z,4.80
2023-08-10T10:07:15.765Z,4.00
2023-08-10T10:12:17.897Z,4.32
2023-08-10T10:17:20.914Z,6.30
2023-08-10T10:22:23.038Z,5.03
2023-08-10T10:27:36.947Z,4.93
2023-08-10T10:32:44.725Z,3.20
2023-08-10T10:37:54.585Z,3.53
2023-08-10T10:43:02.797Z,2.70
2023-08-10T10:48:07.372Z,3.80
2023-08-10T10:53:14.854Z,6.97
2023-08-10T10:58:17.368Z,2.53
2023-08-10T11:03:21.180Z,6.32
2023-08-10T11:08:24.093Z,3.13
2023-08-10T11:13:28.787Z,3.38
2023-08-10T11:18:32.172Z,5.63
2023-08-10T11:23:34.321Z,3.92
2023-08-10T11:28:36.900Z,5.28
2023-08-10T11:33:38.982Z,3.95
2023-08-10T11:38:46.609Z,4.32
2023-08-10T11:43:49.155Z,6.78
2023-08-10T11:48:57.500Z,5.68
2023-08-10T11:53:59.642Z,4.63
2023-08-10T11:59:15.698Z,3.47
2023-08-10T12:04:20.537Z,4.38
2023-08-10T12:09:26.713Z,4.68
2023-08-10T12:14:28.859Z,5.00
2023-08-10T12:19:30.959Z,4.20
2023-08-10T12:24:33.074Z,4.20
2023-08-10T12:29:35.362Z,6.22
2023-08-10T12:34:37.498Z,6.85
2023-08-10T12:39:39.672Z,3.30
2023-08-10T12:44:41.844Z,5.53
2023-08-10T12:49:44.363Z,3.65
2023-08-10T12:54:46.539Z,6.97
2023-08-10T12:59:48.705Z,4.50
2023-08-10T13:04:50.810Z,5.80
2023-08-10T13:09:53.027Z,5.07
2023-08-10T13:14:55.344Z,4.07
2023-08-10T13:20:00.591Z,5.20
2023-08-10T13:25:05.328Z,6.35
2023-08-10T13:30:08.473Z,5.53
2023-08-10T13:35:10.632Z,8.30
2023-08-10T13:40:14.661Z,8.40
2023-08-10T13:45:16.886Z,12.25
2023-08-10T13:50:18.988Z,10.20
2023-08-10T13:55:21.180Z,7.10
2023-08-10T14:00:23.338Z,6.07
2023-08-10T14:05:26.923Z,7.82
2023-08-10T14:10:29.076Z,7.05
2023-08-10T14:15:31.325Z,5.22
2023-08-10T14:20:33.480Z,4.57
2023-08-10T14:25:36.075Z,7.47
2023-08-10T14:30:38.339Z,9.48
2023-08-10T14:35:40.502Z,6.13
2023-08-10T14:40:42.575Z,6.90
2023-08-10T14:45:44.660Z,8.32
2023-08-10T14:50:46.874Z,6.18
2023-08-10T14:55:49.107Z,9.63
2023-08-10T15:00:51.414Z,6.90
2023-08-10T15:05:53.492Z,5.13
2023-08-10T15:10:59.477Z,5.95
2023-08-10T15:16:02.111Z,8.23
2023-08-10T15:21:04.530Z,12.00
2023-08-10T15:26:06.732Z,6.03
2023-08-10T15:31:09.523Z,8.48
2023-08-10T15:36:12.011Z,7.07
2023-08-10T15:41:14.151Z,9.90
2023-08-10T15:46:18.461Z,8.80
2023-08-10T15:51:20.576Z,6.43
2023-08-10T15:56:22.717Z,9.65
2023-08-10T16:01:25.790Z,7.60
2023-08-10T16:06:27.905Z,13.18
2023-08-10T16:11:30.091Z,8.68
2023-08-10T16:16:32.354Z,10.95
2023-08-10T16:21:34.618Z,6.38
2023-08-10T16:26:36.750Z,8.07
2023-08-10T16:31:38.879Z,7.38
2023-08-10T16:36:41.103Z,6.78
2023-08-10T16:41:43.286Z,7.72
2023-08-10T16:46:45.827Z,7.07
2023-08-10T16:51:48.065Z,9.23
2023-08-10T16:56:50.220Z,7.07
2023-08-10T17:01:53.739Z,5.10
2023-08-10T17:06:57.261Z,6.53
2023-08-10T17:11:59.422Z,4.15
2023-08-10T17:17:02.140Z,4.43
2023-08-10T17:22:08.315Z,5.82
2023-08-10T17:27:10.900Z,7.05
2023-08-10T17:32:13.661Z,6.75
2023-08-10T17:37:15.856Z,7.40
2023-08-10T17:42:18.073Z,8.65
2023-08-10T17:47:20.342Z,5.07
2023-08-10T17:52:22.633Z,4.55
2023-08-10T17:57:24.777Z,4.55
2023-08-10T18:02:26.965Z,6.22
2023-08-10T18:07:29.416Z,6.07
2023-08-10T18:12:31.749Z,5.15
2023-08-10T18:17:34.024Z,7.45
2023-08-10T18:22:36.242Z,6.53
2023-08-10T18:27:38.413Z,5.93
2023-08-10T18:32:41.036Z,3.80
2023-08-10T18:37:43.385Z,3.28
2023-08-10T18:42:45.852Z,6.97
2023-08-10T18:47:48.072Z,4.68
2023-08-10T18:52:50.466Z,3.97
2023-08-10T18:57:53.093Z,6.70
2023-08-10T19:02:55.387Z,3.13
2023-08-10T19:07:57.687Z,3.33
2023-08-10T19:12:59.842Z,3.67
2023-08-10T19:18:02.110Z,5.00
2023-08-10T19:23:04.384Z,2.75
2023-08-10T19:28:06.562Z,6.93
2023-08-10T19:33:08.681Z,4.07
2023-08-10T19:38:10.878Z,3.83
2023-08-10T19:43:13.302Z,11.75
2023-08-10T19:48:15.448Z,7.57
2023-08-10T19:53:17.750Z,5.60
2023-08-10T19:58:19.916Z,5.15
2023-08-10T20:03:26.328Z,3.58
2023-08-10T20:08:28.693Z,3.72
2023-08-10T20:13:30.875Z,4.28
2023-08-10T20:18:33.076Z,5.88
2023-08-10T20:23:35.274Z,11.45
2023-08-10T20:28:38.440Z,12.95
2023-08-10T20:33:45.165Z,19.27
2023-08-10T20:38:47.338Z,17.55
2023-08-10T20:43:49.692Z,15.77
2023-08-10T20:48:53.531Z,13.95
2023-08-10T20:53:55.907Z,15.77
2023-08-10T20:58:58.087Z,14.85
2023-08-10T21:04:00.267Z,7.80
2023-08-10T21:09:02.537Z,4.75
2023-08-10T21:14:04.918Z,2.45
2023-08-10T21:19:09.130Z,2.50
2023-08-10T21:24:11.650Z,10.15
2023-08-10T21:29:13.877Z,3.38
2023-08-10T21:34:16.028Z,4.53
2023-08-10T21:39:18.227Z,6.18
2023-08-10T21:44:20.364Z,5.78
2023-08-10T21:49:22.478Z,6.13
2023-08-10T21:54:24.648Z,5.50
2023-08-10T21:59:27.368Z,3.63
2023-08-10T22:04:29.620Z,3.65
2023-08-10T22:09:31.854Z,3.97
2023-08-10T22:14:34.072Z,2.50
2023-08-10T22:19:36.301Z,9.85
2023-08-10T22:24:38.487Z,6.68
2023-08-10T22:29:40.873Z,6.68
2023-08-10T22:34:43.002Z,4.93
2023-08-10T22:39:45.211Z,8.45
2023-08-10T22:44:47.427Z,10.57
2023-08-10T22:49:49.641Z,11.05
2023-08-10T22:54:52.207Z,7.07
2023-08-10T22:59:54.384Z,7.40
2023-08-10T23:04:56.624Z,10.00
2023-08-10T23:09:58.900Z,12.90
2023-08-10T23:15:01.074Z,9.27
2023-08-10T23:20:12.569Z,13.45
2023-08-10T23:25:15.234Z,10.90
2023-08-10T23:30:18.295Z,16.52
2023-08-10T23:35:20.570Z,15.68
2023-08-10T23:40:22.805Z,14.70
2023-08-10T23:45:25.129Z,19.52
2023-08-10T23:50:27.353Z,11.35
2023-08-10T23:55:31.719Z,12.63
